NCAR-RAP Real-Time Weather Data

Output produced by METARs form (20 February 2019  17:05 UTC)
found at http://weather.rap.ucar.edu/surface/
 
Conditions at: KLAL observed 20 February 2019  16:50 UTC
Temperature: 28.0°C (82°F)
Dewpoint: 21.0°C (70°F) [RH = 66%]
Pressure (altimeter): 30.12 inches Hg (1020.1 mb)
Winds: from the SSE (160 degrees) at 15 MPH (13 knots; 6.8 m/s)
gusting to 22 MPH (19 knots; 9.9 m/s)
Visibility: 10 or more miles (16+ km)
Ceiling: 2900 feet AGL
Clouds: broken clouds at 2900 feet AGL
Present Weather: no significant weather observed at this time
KLAL 201650Z 16013G19KT 10SM BKN029 28/21 A3012

Conditions at: KLAL observed 20 February 2019  15:50 UTC
Temperature: 26.0°C (79°F)
Dewpoint: 21.0°C (70°F) [RH = 74%]
Pressure (altimeter): 30.13 inches Hg (1020.4 mb)
Winds: from the SSE (150 degrees) at 13 MPH (11 knots; 5.7 m/s)
gusting to 21 MPH (18 knots; 9.4 m/s)
Visibility: 10 or more miles (16+ km)
Ceiling: 2100 feet AGL
Clouds: broken clouds at 2100 feet AGL
Present Weather: no significant weather observed at this time
KLAL 201550Z 15011G18KT 10SM BKN021 26/21 A3013

Conditions at: KLAL observed 20 February 2019  14:50 UTC
Temperature: 24.0°C (75°F)
Dewpoint: 21.0°C (70°F) [RH = 83%]
Pressure (altimeter): 30.14 inches Hg (1020.7 mb)
Winds: from the SSE (150 degrees) at 12 MPH (10 knots; 5.2 m/s)
gusting to 17 MPH (15 knots; 7.8 m/s)
Visibility: 10 or more miles (16+ km)
Ceiling: 1300 feet AGL
Clouds: broken clouds at 1300 feet AGL
Present Weather: no significant weather observed at this time
KLAL 201450Z 15010G15KT 10SM BKN013 24/21 A3014

Conditions at: KLAL observed 20 February 2019  13:50 UTC
Temperature: 23.0°C (73°F)
Dewpoint: 21.0°C (70°F) [RH = 89%]
Pressure (altimeter): 30.13 inches Hg (1020.4 mb)
Winds: from the SSE (150 degrees) at 12 MPH (10 knots; 5.2 m/s)
gusting to 17 MPH (15 knots; 7.8 m/s)
Visibility: 10 or more miles (16+ km)
Ceiling: 7500 feet AGL
Clouds: overcast cloud deck at 7500 feet AGL
Present Weather: no significant weather observed at this time
KLAL 201350Z 15010G15KT 10SM OVC075 23/21 A3013

Conditions at: KLAL observed 20 February 2019  12:50 UTC
Temperature: 22.0°C (72°F)
Dewpoint: 21.0°C (70°F) [RH = 94%]
Pressure (altimeter): 30.13 inches Hg (1020.4 mb)
Winds: from the SE (140 degrees) at 7 MPH (6 knots; 3.1 m/s)
Visibility: 10 or more miles (16+ km)
Ceiling: at least 12,000 feet AGL
Clouds: scattered clouds at 6000 feet AGL
Present Weather: no significant weather observed at this time
KLAL 201250Z 14006KT 10SM SCT060 22/21 A3013

Conditions at: KLAL observed 20 February 2019  10:50 UTC
Temperature: 22.0°C (72°F)
Dewpoint: 20.0°C (68°F) [RH = 88%]
Pressure (altimeter): 30.09 inches Hg (1019.0 mb)
Winds: from the SE (140 degrees) at 9 MPH (8 knots; 4.2 m/s)
Visibility: 10 or more miles (16+ km)
Ceiling: 6500 feet AGL
Clouds: overcast cloud deck at 6500 feet AGL
Present Weather: no significant weather observed at this time
KLAL 201050Z 14008KT 10SM OVC065 22/20 A3009

Conditions at: KLAL observed 20 February 2019  10:15 UTC
Temperature: 21.0°C (70°F)
Dewpoint: 20.0°C (68°F) [RH = 94%]
Pressure (altimeter): 30.09 inches Hg (1019.0 mb)
Winds: from the SE (140 degrees) at 9 MPH (8 knots; 4.2 m/s)
Visibility: 10 or more miles (16+ km)
Ceiling: 6500 feet AGL
Clouds: overcast cloud deck at 6500 feet AGL
Present Weather: automated observation with no human augmentation;
there may or may not be significant weather present at this time
KLAL 201015Z AUTO 14008KT 10SM OVC065 21/20 A3009 RMK AO2

Conditions at: KLAL observed 20 February 2019  09:35 UTC
Temperature: 20.0°C (68°F)
Dewpoint: 19.0°C (66°F) [RH = 94%]
Pressure (altimeter): 30.09 inches Hg (1019.0 mb)
Winds: from the SE (130 degrees) at 8 MPH (7 knots; 3.6 m/s)
Visibility: 10 or more miles (16+ km)
Ceiling: 8000 feet AGL
Clouds: scattered clouds at 7500 feet AGL
broken clouds at 8000 feet AGL
Present Weather: automated observation with no human augmentation;
there may or may not be significant weather present at this time
KLAL 200935Z AUTO 13007KT 10SM SCT075 BKN080 20/19 A3009 RMK AO2

Conditions at: KLAL observed 20 February 2019  09:15 UTC
Temperature: 20.0°C (68°F)
Dewpoint: 19.0°C (66°F) [RH = 94%]
Pressure (altimeter): 30.09 inches Hg (1019.0 mb)
Winds: from the SE (130 degrees) at 7 MPH (6 knots; 3.1 m/s)
Visibility: 10 or more miles (16+ km)
Ceiling: at least 12,000 feet AGL
Clouds: scattered clouds at 7500 feet AGL
Present Weather: automated observation with no human augmentation;
there may or may not be significant weather present at this time
KLAL 200915Z AUTO 13006KT 10SM SCT075 20/19 A3009 RMK AO2

Conditions at: KLAL observed 20 February 2019  08:15 UTC
Temperature: 20.0°C (68°F)
Dewpoint: 19.0°C (66°F) [RH = 94%]
Pressure (altimeter): 30.10 inches Hg (1019.4 mb)
Winds: from the ESE (120 degrees) at 8 MPH (7 knots; 3.6 m/s)
Visibility: 10 or more miles (16+ km)
Ceiling: at least 12,000 feet AGL
Clouds: sky clear below 12,000 feet AGL
Present Weather: automated observation with no human augmentation;
there may or may not be significant weather present at this time
KLAL 200815Z AUTO 12007KT 10SM CLR 20/19 A3010 RMK AO2

Conditions at: KLAL observed 20 February 2019  07:55 UTC
Temperature: 20.0°C (68°F)
Dewpoint: 20.0°C (68°F) [RH = 100%]
Pressure (altimeter): 30.10 inches Hg (1019.4 mb)
Winds: from the ESE (120 degrees) at 7 MPH (6 knots; 3.1 m/s)
Visibility: 10 or more miles (16+ km)
Ceiling: at least 12,000 feet AGL
Clouds: sky clear below 12,000 feet AGL
Present Weather: automated observation with no human augmentation;
there may or may not be significant weather present at this time
KLAL 200755Z AUTO 12006KT 10SM CLR 20/20 A3010 RMK AO2

Conditions at: KLAL observed 20 February 2019  04:35 UTC
Temperature: 21.0°C (70°F)
Dewpoint: 19.0°C (66°F) [RH = 88%]
Pressure (altimeter): 30.16 inches Hg (1021.4 mb)
Winds: from the ESE (120 degrees) at 7 MPH (6 knots; 3.1 m/s)
Visibility: 10 or more miles (16+ km)
Ceiling: at least 12,000 feet AGL
Clouds: sky clear below 12,000 feet AGL
Present Weather: automated observation with no human augmentation;
there may or may not be significant weather present at this time
KLAL 200435Z AUTO 12006KT 10SM CLR 21/19 A3016 RMK AO2

Conditions at: KLAL observed 20 February 2019  03:35 UTC
Temperature: 22.0°C (72°F)
Dewpoint: 18.0°C (64°F) [RH = 78%]
Pressure (altimeter): 30.17 inches Hg (1021.8 mb)
Winds: from the ESE (120 degrees) at 7 MPH (6 knots; 3.1 m/s)
Visibility: 10 or more miles (16+ km)
Ceiling: at least 12,000 feet AGL
Clouds: sky clear below 12,000 feet AGL
Present Weather: automated observation with no human augmentation;
there may or may not be significant weather present at this time
KLAL 200335Z AUTO 12006KT 10SM CLR 22/18 A3017 RMK AO2

Conditions at: KLAL observed 20 February 2019  03:15 UTC
Temperature: 22.0°C (72°F)
Dewpoint: 18.0°C (64°F) [RH = 78%]
Pressure (altimeter): 30.16 inches Hg (1021.4 mb)
Winds: from the SE (130 degrees) at 8 MPH (7 knots; 3.6 m/s)
Visibility: 10 or more miles (16+ km)
Ceiling: at least 12,000 feet AGL
Clouds: sky clear below 12,000 feet AGL
Present Weather: automated observation with no human augmentation;
there may or may not be significant weather present at this time
KLAL 200315Z AUTO 13007KT 10SM CLR 22/18 A3016 RMK AO2

Conditions at: KLAL observed 20 February 2019  02:55 UTC
Temperature: 23.0°C (73°F)
Dewpoint: 18.0°C (64°F) [RH = 73%]
Pressure (altimeter): 30.16 inches Hg (1021.4 mb)
Winds: from the SE (130 degrees) at 8 MPH (7 knots; 3.6 m/s)
Visibility: 10 or more miles (16+ km)
Ceiling: at least 12,000 feet AGL
Clouds: sky clear below 12,000 feet AGL
Present Weather: automated observation with no human augmentation;
there may or may not be significant weather present at this time
KLAL 200255Z AUTO 13007KT 10SM CLR 23/18 A3016 RMK AO2

Conditions at: KLAL observed 20 February 2019  02:53 UTC
Temperature: 23.0°C (73°F)
Dewpoint: 18.0°C (64°F) [RH = 73%]
Pressure (altimeter): 30.16 inches Hg (1021.4 mb)
Winds: from the SE (130 degrees) at 8 MPH (7 knots; 3.6 m/s)
Visibility: 10 or more miles (16+ km)
Ceiling: at least 12,000 feet AGL
Clouds: clear skies
Present Weather: no significant weather observed at this time
KLAL 200253Z 13007KT 10SM SKC 23/18 A3016

Conditions at: KLAL observed 20 February 2019  01:50 UTC
Temperature: 25.0°C (77°F)
Dewpoint: 18.0°C (64°F) [RH = 65%]
Pressure (altimeter): 30.16 inches Hg (1021.4 mb)
Winds: from the SE (140 degrees) at 8 MPH (7 knots; 3.6 m/s)
Visibility: 10 or more miles (16+ km)
Ceiling: at least 12,000 feet AGL
Clouds: clear skies
Present Weather: no significant weather observed at this time
KLAL 200150Z 14007KT 10SM SKC 25/18 A3016

Conditions at: KLAL observed 20 February 2019  00:52 UTC
Temperature: 26.0°C (79°F)
Dewpoint: 18.0°C (64°F) [RH = 61%]
Pressure (altimeter): 30.13 inches Hg (1020.4 mb)
Winds: from the SSE (150 degrees) at 12 MPH (10 knots; 5.2 m/s)
Visibility: 10 or more miles (16+ km)
Ceiling: at least 12,000 feet AGL
Clouds: clear skies
Present Weather: no significant weather observed at this time
KLAL 200052Z 15010KT 10SM SKC 26/18 A3013

Conditions at: KLAL observed 19 February 2019  23:50 UTC
Temperature: 27.0°C (81°F)
Dewpoint: 17.0°C (63°F) [RH = 54%]
Pressure (altimeter): 30.11 inches Hg (1019.7 mb)
Winds: from the SE (140 degrees) at 7 MPH (6 knots; 3.1 m/s)
Visibility: 10 or more miles (16+ km)
Ceiling: at least 12,000 feet AGL
Clouds: few clouds at 5000 feet AGL
Present Weather: no significant weather observed at this time
KLAL 192350Z 14006KT 10SM FEW050 27/17 A3011

Conditions at: KLAL observed 19 February 2019  22:53 UTC
Temperature: 29.0°C (84°F)
Dewpoint: 17.0°C (63°F) [RH = 48%]
Pressure (altimeter): 30.11 inches Hg (1019.7 mb)
Winds: from the SSE (150 degrees) at 13 MPH (11 knots; 5.7 m/s)
Visibility: 10 or more miles (16+ km)
Ceiling: at least 12,000 feet AGL
Clouds: few clouds at 5000 feet AGL
Present Weather: no significant weather observed at this time
KLAL 192253Z 15011KT 10SM FEW050 29/17 A3011

Conditions at: KLAL observed 19 February 2019  21:52 UTC
Temperature: 29.0°C (84°F)
Dewpoint: 17.0°C (63°F) [RH = 48%]
Pressure (altimeter): 30.10 inches Hg (1019.4 mb)
Winds: from the SE (140 degrees) at 12 MPH (10 knots; 5.2 m/s)
Visibility: 10 or more miles (16+ km)
Ceiling: at least 12,000 feet AGL
Clouds: scattered clouds at 5000 feet AGL
Present Weather: no significant weather observed at this time
KLAL 192152Z 14010KT 10SM SCT050 29/17 A3010 RMK FU SE-W MOV NW

Conditions at: KLAL observed 19 February 2019  20:53 UTC
Temperature: 30.0°C (86°F)
Dewpoint: 19.0°C (66°F) [RH = 52%]
Pressure (altimeter): 30.11 inches Hg (1019.7 mb)
Winds: from the SE (140 degrees) at 7 MPH (6 knots; 3.1 m/s)
Visibility: 10 or more miles (16+ km)
Ceiling: at least 12,000 feet AGL
Clouds: scattered clouds at 4500 feet AGL
Present Weather: no significant weather observed at this time
KLAL 192053Z 14006KT 10SM SCT045 30/19 A3011 RMK FU SE MOV NW

Conditions at: KLAL observed 19 February 2019  19:53 UTC
Temperature: 30.0°C (86°F)
Dewpoint: 19.0°C (66°F) [RH = 52%]
Pressure (altimeter): 30.13 inches Hg (1020.4 mb)
Winds: from the SE (140 degrees) at 7 MPH (6 knots; 3.1 m/s)
Visibility: 10 or more miles (16+ km)
Ceiling: 4400 feet AGL
Clouds: broken clouds at 4400 feet AGL
Present Weather: no significant weather observed at this time
KLAL 191953Z 14006KT 10SM BKN044 30/19 A3013

Conditions at: KLAL observed 19 February 2019  18:50 UTC
Temperature: 29.0°C (84°F)
Dewpoint: 19.0°C (66°F) [RH = 55%]
Pressure (altimeter): 30.16 inches Hg (1021.4 mb)
Winds: from the SE (130 degrees) at 5 MPH (4 knots; 2.1 m/s)
Visibility: 10 or more miles (16+ km)
Ceiling: at least 12,000 feet AGL
Clouds: scattered clouds at 3800 feet AGL
Present Weather: no significant weather observed at this time
KLAL 191850Z 13004KT 10SM SCT038 29/19 A3016

Conditions at: KLAL observed 19 February 2019  17:50 UTC
Temperature: 28.0°C (82°F)
Dewpoint: 20.0°C (68°F) [RH = 62%]
Pressure (altimeter): 30.20 inches Hg (1022.8 mb)
Winds: from the S (170 degrees) at 5 MPH (4 knots; 2.1 m/s)
Visibility: 10 or more miles (16+ km)
Ceiling: at least 12,000 feet AGL
Clouds: scattered clouds at 3000 feet AGL
Present Weather: no significant weather observed at this time
KLAL 191750Z 17004KT 10SM SCT030 28/20 A3020